createdAt,value
2023-11-30T00:00:45.307Z,93068.88
2023-11-30T00:03:13.235Z,93071.47
2023-11-30T00:05:40.644Z,93077.44
2023-11-30T00:08:07.986Z,93067.84
2023-11-30T00:10:35.723Z,93060.22
2023-11-30T00:13:03.109Z,93067.25
2023-11-30T00:15:30.573Z,93069.47
2023-11-30T00:17:58.595Z,93064.59
2023-11-30T00:20:26.024Z,93076.47
2023-11-30T00:22:53.403Z,93071.44
2023-11-30T00:25:21.276Z,93081.72
2023-11-30T00:27:48.678Z,93086.16
2023-11-30T00:30:16.391Z,93078.34
2023-11-30T00:32:44.204Z,93081.75
2023-11-30T00:35:11.567Z,93092.28
2023-11-30T00:37:38.933Z,93099.47
2023-11-30T00:40:08.461Z,93096.53
2023-11-30T00:42:35.919Z,93094.69
2023-11-30T00:45:03.504Z,93099.75
2023-11-30T00:47:31.338Z,93093.44
2023-11-30T00:49:58.841Z,93097.19
2023-11-30T00:52:26.149Z,93100.19
2023-11-30T00:54:53.951Z,93107.28
2023-11-30T00:57:21.415Z,93104.78
2023-11-30T00:59:48.828Z,93113.59
2023-11-30T01:02:17.174Z,93115.78
2023-11-30T01:04:44.578Z,93106.13
2023-11-30T01:07:12.129Z,93121.13
2023-11-30T01:09:40.282Z,93118.34
2023-11-30T01:12:07.960Z,93113.41
2023-11-30T01:14:35.733Z,93127.59
2023-11-30T01:17:03.756Z,93118.81
2023-11-30T01:19:31.190Z,93111.78
2023-11-30T01:21:58.622Z,93120.72
2023-11-30T01:24:26.386Z,93128.38
2023-11-30T01:26:54.021Z,93127.81
2023-11-30T01:29:21.471Z,93129.78
2023-11-30T01:31:49.254Z,93134.47
2023-11-30T01:34:16.649Z,93134.41
2023-11-30T01:36:45.111Z,93143.03
2023-11-30T01:39:15.251Z,93142.88
2023-11-30T01:41:43.530Z,93145.00
2023-11-30T01:44:11.768Z,93149.34
2023-11-30T01:46:39.940Z,93145.50
2023-11-30T01:49:09.182Z,93146.97
2023-11-30T01:51:37.930Z,93147.66
2023-11-30T01:54:08.774Z,93143.25
2023-11-30T01:56:39.312Z,93138.25
2023-11-30T01:59:09.110Z,93151.53
2023-11-30T02:01:37.088Z,93149.94
2023-11-30T02:04:15.473Z,93154.50
2023-11-30T02:06:47.605Z,93152.91
2023-11-30T02:09:15.804Z,93156.37
2023-11-30T02:11:43.523Z,93156.66
2023-11-30T02:14:10.894Z,93153.03
2023-11-30T02:16:38.710Z,93151.69
2023-11-30T02:19:06.747Z,93156.84
2023-11-30T02:21:34.581Z,93162.50
2023-11-30T02:24:03.284Z,93173.47
2023-11-30T02:26:30.741Z,93164.31
2023-11-30T02:28:58.526Z,93168.69
2023-11-30T02:31:25.961Z,93166.47
2023-11-30T02:33:53.461Z,93163.94
2023-11-30T02:36:21.337Z,93178.84
2023-11-30T02:38:48.719Z,93192.06
2023-11-30T02:41:18.265Z,93185.50
2023-11-30T02:43:45.887Z,93197.72
2023-11-30T02:46:13.469Z,93197.81
2023-11-30T02:48:40.948Z,93194.41
2023-11-30T02:51:08.716Z,93199.47
2023-11-30T02:53:36.081Z,93200.84
2023-11-30T02:56:03.650Z,93205.53
2023-11-30T02:58:31.372Z,93204.31
2023-11-30T03:00:58.785Z,93202.75
2023-11-30T03:03:26.274Z,93205.44
2023-11-30T03:05:54.463Z,93198.56
2023-11-30T03:08:21.908Z,93209.56
2023-11-30T03:10:49.313Z,93212.25
2023-11-30T03:13:17.102Z,93210.53
2023-11-30T03:15:47.253Z,93226.22
2023-11-30T03:18:14.770Z,93216.06
2023-11-30T03:20:42.739Z,93208.50
2023-11-30T03:23:10.086Z,93207.50
2023-11-30T03:25:38.139Z,93213.34
2023-11-30T03:28:05.926Z,93205.16
2023-11-30T03:30:33.765Z,93218.81
2023-11-30T03:33:01.402Z,93218.19
2023-11-30T03:35:29.244Z,93209.87
2023-11-30T03:37:56.677Z,93224.38
2023-11-30T03:40:24.077Z,93233.69
2023-11-30T03:42:51.754Z,93236.62
2023-11-30T03:45:19.232Z,93230.22
2023-11-30T03:47:46.767Z,93233.84
2023-11-30T03:50:14.541Z,93235.66
2023-11-30T03:52:41.937Z,93232.34
2023-11-30T03:55:09.941Z,93233.22
2023-11-30T03:57:37.601Z,93248.47
2023-11-30T04:00:08.911Z,93250.78
2023-11-30T04:02:37.257Z,93243.28
2023-11-30T04:05:06.753Z,93245.66
2023-11-30T04:07:34.077Z,93256.66
2023-11-30T04:10:01.792Z,93246.63
2023-11-30T04:12:29.161Z,93266.03
2023-11-30T04:14:56.702Z,93260.41
2023-11-30T04:17:24.706Z,93260.25
2023-11-30T04:19:52.161Z,93266.97
2023-11-30T04:22:19.565Z,93271.81
2023-11-30T04:24:47.172Z,93263.94
2023-11-30T04:27:14.481Z,93263.41
2023-11-30T04:29:41.930Z,93265.84
2023-11-30T04:32:09.759Z,93263.41
2023-11-30T04:34:37.081Z,93271.91
2023-11-30T04:37:04.802Z,93255.56
2023-11-30T04:39:32.608Z,93247.31
2023-11-30T04:42:00.098Z,93256.09
2023-11-30T04:44:30.944Z,93257.22
2023-11-30T04:46:59.306Z,93255.31
2023-11-30T04:49:26.984Z,93244.53
2023-11-30T04:51:54.517Z,93241.19
2023-11-30T04:54:22.285Z,93251.75
2023-11-30T04:56:50.245Z,93243.09
2023-11-30T04:59:17.692Z,93234.78
2023-11-30T05:01:45.899Z,93227.09
2023-11-30T05:04:14.786Z,93237.31
2023-11-30T05:06:43.278Z,93236.62
2023-11-30T05:09:12.018Z,93237.41
2023-11-30T05:11:39.777Z,93235.97
2023-11-30T05:14:07.142Z,93241.97
2023-11-30T05:16:35.022Z,93250.75
2023-11-30T05:19:03.501Z,93256.31
2023-11-30T05:21:31.670Z,93263.06
2023-11-30T05:24:00.022Z,93280.91
2023-11-30T05:26:27.468Z,93279.59
2023-11-30T05:28:54.943Z,93269.63
2023-11-30T05:31:22.783Z,93269.91
2023-11-30T05:33:50.462Z,93275.50
2023-11-30T05:36:18.830Z,93284.88
2023-11-30T05:38:46.792Z,93299.78
2023-11-30T05:41:14.199Z,93289.41
2023-11-30T05:43:41.834Z,93297.31
2023-11-30T05:46:09.647Z,93289.25
2023-11-30T05:48:37.075Z,93296.22
2023-11-30T05:51:04.602Z,93295.44
2023-11-30T05:53:32.913Z,93289.50
2023-11-30T05:56:00.743Z,93293.00
2023-11-30T05:58:29.846Z,93295.66
2023-11-30T06:00:58.973Z,93297.44
2023-11-30T06:03:28.132Z,93298.44
2023-11-30T06:05:56.697Z,93305.09
2023-11-30T06:08:28.429Z,93295.28
2023-11-30T06:10:56.338Z,93302.63
2023-11-30T06:13:25.858Z,93295.03
2023-11-30T06:15:54.168Z,93304.47
2023-11-30T06:18:25.752Z,93299.00
2023-11-30T06:20:53.038Z,93299.78
2023-11-30T06:23:20.773Z,93296.91
2023-11-30T06:25:50.104Z,93312.62
2023-11-30T06:28:18.409Z,93320.84
2023-11-30T06:30:46.128Z,93319.00
2023-11-30T06:33:14.621Z,93309.91
2023-11-30T06:35:42.044Z,93318.31
2023-11-30T06:38:09.492Z,93321.16
2023-11-30T06:40:37.822Z,93325.00
2023-11-30T06:43:06.285Z,93327.66
2023-11-30T06:45:34.217Z,93326.25
2023-11-30T06:48:02.467Z,93340.50
2023-11-30T06:50:33.192Z,93343.00
2023-11-30T06:53:00.804Z,93346.75
2023-11-30T06:55:28.762Z,93346.53
2023-11-30T06:57:56.539Z,93350.59
2023-11-30T07:00:23.883Z,93342.09
2023-11-30T07:02:52.159Z,93345.75
2023-11-30T07:05:20.034Z,93342.47
2023-11-30T07:07:47.362Z,93347.22
2023-11-30T07:10:15.393Z,93356.38
2023-11-30T07:12:43.332Z,93354.44
2023-11-30T07:15:11.500Z,93355.16
2023-11-30T07:17:39.460Z,93349.00
2023-11-30T07:20:10.077Z,93353.22
2023-11-30T07:22:38.610Z,93354.00
2023-11-30T07:25:08.504Z,93345.75
2023-11-30T07:27:35.834Z,93346.41
2023-11-30T07:30:03.392Z,93346.00
2023-11-30T07:32:31.783Z,93333.19
2023-11-30T07:35:00.908Z,93331.91
2023-11-30T07:37:28.303Z,93348.34
2023-11-30T07:39:56.815Z,93343.97
2023-11-30T07:42:29.902Z,93346.94
2023-11-30T07:45:03.938Z,93357.59
2023-11-30T07:47:33.475Z,93350.66
2023-11-30T07:50:01.074Z,93347.09
2023-11-30T07:52:30.710Z,93338.41
2023-11-30T07:54:59.121Z,93334.41
2023-11-30T07:57:26.910Z,93332.00
2023-11-30T07:59:54.749Z,93336.50
2023-11-30T08:02:22.723Z,93337.97
2023-11-30T08:04:50.823Z,93347.91
2023-11-30T08:07:18.319Z,93350.38
2023-11-30T08:09:45.838Z,93358.34
2023-11-30T08:12:13.678Z,93352.50
2023-11-30T08:14:41.035Z,93353.28
2023-11-30T08:17:08.418Z,93341.78
2023-11-30T08:19:37.396Z,93335.53
2023-11-30T08:22:06.646Z,93316.41
2023-11-30T08:24:34.234Z,93327.50
2023-11-30T08:27:03.994Z,93322.91
2023-11-30T08:29:31.772Z,93321.81
2023-11-30T08:31:59.665Z,93316.13
2023-11-30T08:34:27.420Z,93327.72
2023-11-30T08:36:54.876Z,93332.28
2023-11-30T08:39:24.881Z,93343.03
2023-11-30T08:41:54.644Z,93367.44
2023-11-30T08:44:26.065Z,93356.34
2023-11-30T08:46:54.830Z,93354.28
2023-11-30T08:49:23.586Z,93351.50
2023-11-30T08:51:51.168Z,93343.81
2023-11-30T08:54:20.331Z,93343.97
2023-11-30T08:56:47.728Z,93349.03
2023-11-30T08:59:15.053Z,93334.22
2023-11-30T09:01:43.134Z,93339.03
2023-11-30T09:04:10.982Z,93336.09
2023-11-30T09:06:41.125Z,93327.38
2023-11-30T09:09:10.184Z,93329.31
2023-11-30T09:11:37.711Z,93327.78
2023-11-30T09:14:05.913Z,93330.81
2023-11-30T09:16:33.874Z,93327.19
2023-11-30T09:19:01.772Z,93320.59
2023-11-30T09:21:31.133Z,93330.41
2023-11-30T09:24:00.598Z,93315.75
2023-11-30T09:26:28.213Z,93303.84
2023-11-30T09:28:55.814Z,93301.03
2023-11-30T09:31:23.749Z,93303.66
2023-11-30T09:33:51.234Z,93284.59
2023-11-30T09:36:18.936Z,93292.94
2023-11-30T09:38:48.370Z,93283.88
2023-11-30T09:41:17.201Z,93284.38
2023-11-30T09:43:46.940Z,93275.28
2023-11-30T09:46:14.791Z,93265.13
2023-11-30T09:48:43.295Z,93268.22
2023-11-30T09:51:12.290Z,93258.72
2023-11-30T09:53:40.252Z,93247.63
2023-11-30T09:56:08.527Z,93240.69
2023-11-30T09:58:38.913Z,93241.78
2023-11-30T10:01:09.357Z,93239.47
2023-11-30T10:03:39.530Z,93241.69
2023-11-30T10:06:07.806Z,93227.72
2023-11-30T10:08:35.287Z,93220.78
2023-11-30T10:11:05.181Z,93213.28
2023-11-30T10:13:32.740Z,93216.66
2023-11-30T10:16:00.331Z,93212.75
2023-11-30T10:18:31.668Z,93215.59
2023-11-30T10:20:59.459Z,93201.19
2023-11-30T10:23:27.548Z,93198.41
2023-11-30T10:25:57.162Z,93206.03
2023-11-30T10:28:24.839Z,93200.75
2023-11-30T10:30:55.469Z,93182.25
2023-11-30T10:33:25.498Z,93184.06
2023-11-30T10:35:54.433Z,93180.59
2023-11-30T10:38:29.055Z,93166.91
2023-11-30T10:41:02.893Z,93177.84
2023-11-30T10:43:32.492Z,93176.81
2023-11-30T10:46:04.284Z,93176.00
2023-11-30T10:48:32.912Z,93166.66
2023-11-30T10:51:01.486Z,93172.44
2023-11-30T10:54:15.274Z,93177.97
2023-11-30T10:56:43.608Z,93181.00
2023-11-30T10:59:14.764Z,93193.13
2023-11-30T11:01:46.847Z,93191.75
2023-11-30T11:04:16.004Z,93190.62
2023-11-30T11:06:44.125Z,93186.22
2023-11-30T11:09:17.656Z,93191.22
2023-11-30T11:11:46.142Z,93185.72
2023-11-30T11:14:46.059Z,93171.28
2023-11-30T11:17:13.919Z,93169.66
2023-11-30T11:19:45.741Z,93169.28
2023-11-30T11:22:27.541Z,93167.25
2023-11-30T11:24:59.554Z,93156.69
2023-11-30T11:27:30.272Z,93145.16
2023-11-30T11:30:06.640Z,93146.56
2023-11-30T11:32:36.149Z,93139.47
2023-11-30T11:35:04.884Z,93147.28
2023-11-30T11:37:33.494Z,93131.59
2023-11-30T11:40:03.409Z,93136.84
2023-11-30T11:42:33.545Z,93124.25
2023-11-30T11:45:05.902Z,93121.94
2023-11-30T11:47:34.162Z,93121.47
2023-11-30T11:50:02.207Z,93117.66
2023-11-30T11:52:31.909Z,93116.78
2023-11-30T11:55:10.350Z,93108.97
2023-11-30T11:57:44.999Z,93108.16
2023-11-30T12:00:21.931Z,93101.66
2023-11-30T12:02:51.161Z,93086.09
2023-11-30T12:05:26.869Z,93090.63
2023-11-30T12:08:00.928Z,93078.94
2023-11-30T12:10:42.645Z,93075.66
2023-11-30T12:13:13.846Z,93075.66
2023-11-30T12:15:42.342Z,93080.19
2023-11-30T12:18:11.738Z,93066.81
2023-11-30T12:20:39.938Z,93065.03
2023-11-30T12:23:07.559Z,93065.78
2023-11-30T12:25:35.654Z,93073.16
2023-11-30T12:28:03.168Z,93081.16
2023-11-30T12:30:31.507Z,93078.59
2023-11-30T12:33:01.276Z,93091.31
2023-11-30T12:35:29.386Z,93092.28
2023-11-30T12:37:56.990Z,93079.09
2023-11-30T12:40:25.191Z,93088.25
2023-11-30T12:42:52.817Z,93082.59
2023-11-30T12:45:20.696Z,93084.50
2023-11-30T12:47:50.611Z,93092.72
2023-11-30T12:50:18.514Z,93093.41
2023-11-30T12:52:46.213Z,93104.03
2023-11-30T12:55:16.414Z,93103.37
2023-11-30T12:57:48.840Z,93086.69
2023-11-30T13:00:17.587Z,93082.41
2023-11-30T13:02:47.042Z,93082.97
2023-11-30T13:05:15.701Z,93084.28
2023-11-30T13:07:44.353Z,93076.62
2023-11-30T13:10:13.166Z,93088.34
2023-11-30T13:12:42.971Z,93101.81
2023-11-30T13:15:12.402Z,93091.12
2023-11-30T13:17:40.268Z,93109.31
2023-11-30T13:20:10.001Z,93094.16
2023-11-30T13:22:37.904Z,93100.59
2023-11-30T13:25:06.882Z,93106.97
2023-11-30T13:27:34.591Z,93092.25
2023-11-30T13:30:02.616Z,93095.53
2023-11-30T13:32:32.565Z,93101.19
2023-11-30T13:35:00.323Z,93095.28
2023-11-30T13:37:28.283Z,93111.44
2023-11-30T13:39:55.828Z,93103.37
2023-11-30T13:42:24.162Z,93117.06
2023-11-30T13:44:52.129Z,93114.56
2023-11-30T13:47:20.968Z,93115.56
2023-11-30T13:49:48.608Z,93129.88
2023-11-30T13:52:16.459Z,93117.63
2023-11-30T13:54:44.028Z,93121.34
2023-11-30T13:57:11.675Z,93130.03
2023-11-30T13:59:40.388Z,93116.44
2023-11-30T14:02:08.372Z,93140.13
2023-11-30T14:04:36.543Z,93131.78
2023-11-30T14:07:05.244Z,93139.84
2023-11-30T14:09:33.246Z,93146.44
2023-11-30T14:12:01.284Z,93146.22
2023-11-30T14:14:28.775Z,93148.16
2023-11-30T14:16:56.495Z,93159.91
2023-11-30T14:19:24.613Z,93136.88
2023-11-30T14:21:52.141Z,93147.38
2023-11-30T14:24:19.864Z,93159.06
2023-11-30T14:26:47.791Z,93144.09
2023-11-30T14:29:15.775Z,93151.97
2023-11-30T14:31:43.382Z,93155.41
2023-11-30T14:34:11.380Z,93138.12
2023-11-30T14:36:39.109Z,93151.28
2023-11-30T14:39:07.673Z,93153.81
2023-11-30T14:41:38.563Z,93149.69
2023-11-30T14:44:06.261Z,93146.19
2023-11-30T14:46:33.867Z,93155.53
2023-11-30T14:49:01.829Z,93147.13
2023-11-30T14:51:29.452Z,93144.00
2023-11-30T14:53:57.109Z,93146.44
2023-11-30T14:56:26.936Z,93136.78
2023-11-30T14:58:54.506Z,93147.09
2023-11-30T15:01:22.060Z,93141.16
2023-11-30T15:03:50.148Z,93151.06
2023-11-30T15:06:18.020Z,93137.09
2023-11-30T15:08:46.039Z,93164.16
2023-11-30T15:11:13.993Z,93158.19
2023-11-30T15:13:41.978Z,93148.03
2023-11-30T15:16:09.927Z,93144.22
2023-11-30T15:18:37.871Z,93154.63
2023-11-30T15:21:05.567Z,93153.81
2023-11-30T15:23:33.019Z,93160.66
2023-11-30T15:26:00.994Z,93159.81
2023-11-30T15:28:28.574Z,93160.47
2023-11-30T15:30:56.127Z,93169.44
2023-11-30T15:33:24.161Z,93167.59
2023-11-30T15:35:52.318Z,93170.59
2023-11-30T15:38:19.840Z,93162.63
2023-11-30T15:40:47.831Z,93158.88
2023-11-30T15:43:15.342Z,93171.44
2023-11-30T15:45:43.061Z,93161.53
2023-11-30T15:48:12.384Z,93150.94
2023-11-30T15:50:40.243Z,93160.72
2023-11-30T15:53:07.720Z,93165.13
2023-11-30T15:55:35.727Z,93171.09
2023-11-30T15:58:03.343Z,93166.88
2023-11-30T16:00:30.956Z,93176.88
2023-11-30T16:03:02.177Z,93187.06
2023-11-30T16:05:30.566Z,93181.06
2023-11-30T16:07:58.931Z,93171.09
2023-11-30T16:10:27.112Z,93180.28
2023-11-30T16:12:54.829Z,93190.84
2023-11-30T16:15:23.016Z,93185.66
2023-11-30T16:17:52.426Z,93189.06
2023-11-30T16:20:20.047Z,93191.25
2023-11-30T16:22:47.723Z,93203.22
2023-11-30T16:25:15.635Z,93203.41
2023-11-30T16:27:44.131Z,93201.81
2023-11-30T16:30:12.842Z,93203.63
2023-11-30T16:32:40.850Z,93195.03
2023-11-30T16:35:09.214Z,93190.25
2023-11-30T16:37:37.081Z,93185.09
2023-11-30T16:40:06.004Z,93192.88
2023-11-30T16:42:33.976Z,93193.66
2023-11-30T16:45:01.745Z,93175.53
2023-11-30T16:47:29.723Z,93173.53
2023-11-30T16:49:57.375Z,93168.75
2023-11-30T16:52:25.102Z,93164.00
2023-11-30T16:54:53.131Z,93183.69
2023-11-30T16:57:20.730Z,93183.88
2023-11-30T16:59:48.440Z,93188.88
2023-11-30T17:02:16.339Z,93173.75
2023-11-30T17:04:44.591Z,93154.41
2023-11-30T17:07:12.312Z,93139.69
2023-11-30T17:09:40.734Z,93140.87
2023-11-30T17:12:08.493Z,93124.53
2023-11-30T17:14:36.046Z,93129.31
2023-11-30T17:17:04.081Z,93119.75
2023-11-30T17:19:32.015Z,93115.56
2023-11-30T17:21:59.694Z,93120.16
2023-11-30T17:24:29.284Z,93132.50
2023-11-30T17:26:57.568Z,93134.88
2023-11-30T17:29:25.139Z,93128.31
2023-11-30T17:31:53.363Z,93134.47
2023-11-30T17:34:21.410Z,93124.72
2023-11-30T17:36:49.288Z,93125.31
2023-11-30T17:39:18.255Z,93114.38
2023-11-30T17:41:46.323Z,93111.97
2023-11-30T17:44:13.924Z,93104.22
2023-11-30T17:46:43.899Z,93100.00
2023-11-30T17:49:12.879Z,93097.66
2023-11-30T17:51:40.809Z,93090.84
2023-11-30T17:54:08.930Z,93088.06
2023-11-30T17:56:36.515Z,93083.66
2023-11-30T17:59:04.621Z,93076.53
2023-11-30T18:01:33.001Z,93077.34
2023-11-30T18:04:01.624Z,93082.13
2023-11-30T18:06:30.204Z,93092.91
2023-11-30T18:08:57.840Z,93084.53
2023-11-30T18:11:26.042Z,93075.34
2023-11-30T18:13:53.522Z,93092.69
2023-11-30T18:16:21.125Z,93097.03
2023-11-30T18:18:49.810Z,93085.09
2023-11-30T18:21:18.167Z,93080.72
2023-11-30T18:23:46.041Z,93084.50
2023-11-30T18:26:13.905Z,93087.69
2023-11-30T18:28:41.554Z,93085.53
2023-11-30T18:31:16.764Z,93082.94
2023-11-30T18:33:51.289Z,93084.31
2023-11-30T18:36:19.182Z,93090.50
2023-11-30T18:38:50.850Z,93097.84
2023-11-30T18:41:23.263Z,93088.28
2023-11-30T18:43:51.225Z,93088.69
2023-11-30T18:46:19.373Z,93098.66
2023-11-30T18:48:47.717Z,93091.50
2023-11-30T18:51:15.449Z,93101.06
2023-11-30T18:53:43.029Z,93087.31
2023-11-30T18:56:11.315Z,93078.34
2023-11-30T18:58:39.845Z,93098.66
2023-11-30T19:01:07.555Z,93083.31
2023-11-30T19:03:36.133Z,93064.81
2023-11-30T19:06:04.172Z,93066.81
2023-11-30T19:08:32.002Z,93074.38
2023-11-30T19:11:00.003Z,93068.22
2023-11-30T19:13:27.552Z,93062.22
2023-11-30T19:15:55.216Z,93080.53
2023-11-30T19:18:23.327Z,93065.41
2023-11-30T19:20:50.895Z,93085.94
2023-11-30T19:23:18.568Z,93069.19
2023-11-30T19:25:46.563Z,93084.72
2023-11-30T19:28:14.511Z,93062.63
2023-11-30T19:30:42.225Z,93088.13
2023-11-30T19:33:10.398Z,93083.13
2023-11-30T19:35:38.084Z,93065.59
2023-11-30T19:38:05.786Z,93078.53
2023-11-30T19:40:33.783Z,93069.56
2023-11-30T19:43:01.365Z,93068.59
2023-11-30T19:45:29.021Z,93052.28
2023-11-30T19:47:57.115Z,93048.47
2023-11-30T19:50:25.063Z,93064.00
2023-11-30T19:52:52.968Z,93048.28
2023-11-30T19:55:20.898Z,93069.97
2023-11-30T19:57:48.467Z,93058.66
2023-11-30T20:00:16.489Z,93083.91
2023-11-30T20:02:44.630Z,93071.19
2023-11-30T20:05:14.001Z,93066.59
2023-11-30T20:07:41.440Z,93068.19
2023-11-30T20:10:12.240Z,93058.06
2023-11-30T20:12:42.823Z,93051.66
2023-11-30T20:15:10.944Z,93044.50
2023-11-30T20:17:38.516Z,93042.31
2023-11-30T20:20:06.635Z,93038.16
2023-11-30T20:22:34.573Z,93052.47
2023-11-30T20:25:02.200Z,93042.91
2023-11-30T20:27:29.830Z,93050.06
2023-11-30T20:29:58.049Z,93049.28
2023-11-30T20:32:25.962Z,93038.72
2023-11-30T20:34:54.003Z,93057.84
2023-11-30T20:37:21.987Z,93061.22
2023-11-30T20:39:49.582Z,93046.31
2023-11-30T20:42:17.222Z,93059.03
2023-11-30T20:44:45.151Z,93057.66
2023-11-30T20:47:12.706Z,93054.66
2023-11-30T20:49:40.343Z,93076.50
2023-11-30T20:52:08.341Z,93058.22
2023-11-30T20:54:36.037Z,93088.22
2023-11-30T20:57:03.574Z,93089.25
2023-11-30T20:59:32.079Z,93079.50
2023-11-30T21:02:00.289Z,93080.28
2023-11-30T21:04:28.126Z,93095.41
2023-11-30T21:06:56.227Z,93092.41
2023-11-30T21:09:24.036Z,93067.91
2023-11-30T21:11:55.522Z,93095.41
2023-11-30T21:14:23.670Z,93088.97
2023-11-30T21:16:51.690Z,93052.41
2023-11-30T21:19:20.846Z,93081.78
2023-11-30T21:21:48.919Z,93066.28
2023-11-30T21:24:16.703Z,93075.41
2023-11-30T21:26:44.999Z,93081.78
2023-11-30T21:29:13.395Z,93070.88
2023-11-30T21:31:41.181Z,93083.19
2023-11-30T21:34:08.784Z,93076.25
2023-11-30T21:36:43.173Z,93082.22
2023-11-30T21:39:15.582Z,93091.94
2023-11-30T21:41:43.551Z,93086.41
2023-11-30T21:44:11.277Z,93079.66
2023-11-30T21:46:39.181Z,93065.91
2023-11-30T21:49:07.336Z,93062.31
2023-11-30T21:51:37.008Z,93071.88
2023-11-30T21:54:04.633Z,93062.94
2023-11-30T21:56:33.712Z,93072.50
2023-11-30T21:59:01.342Z,93057.41
2023-11-30T22:01:29.241Z,93047.06
2023-11-30T22:03:57.392Z,93026.00
2023-11-30T22:06:25.171Z,93042.87
2023-11-30T22:08:53.896Z,93036.50
2023-11-30T22:11:21.836Z,93055.81
2023-11-30T22:13:49.349Z,93044.47
2023-11-30T22:16:23.654Z,93040.09
2023-11-30T22:18:56.950Z,93034.16
2023-11-30T22:21:24.571Z,93038.94
2023-11-30T22:23:52.054Z,93040.91
2023-11-30T22:26:20.148Z,93033.16
2023-11-30T22:28:47.890Z,93032.56
2023-11-30T22:31:17.633Z,93031.00
2023-11-30T22:33:45.874Z,93043.69
2023-11-30T22:36:13.790Z,93039.94
2023-11-30T22:38:46.168Z,93029.38
2023-11-30T22:41:15.244Z,93020.03
2023-11-30T22:43:42.746Z,93024.00
2023-11-30T22:46:20.962Z,93012.88
2023-11-30T22:48:52.248Z,92999.94
2023-11-30T22:51:20.082Z,93005.09
2023-11-30T22:53:47.838Z,93001.53
2023-11-30T22:56:20.900Z,93007.91
2023-11-30T22:58:48.715Z,93000.94
2023-11-30T23:01:17.553Z,93007.50
2023-11-30T23:03:45.890Z,92997.16
2023-11-30T23:06:15.642Z,93006.09
2023-11-30T23:08:44.362Z,93002.31
2023-11-30T23:11:12.238Z,93000.34
2023-11-30T23:13:40.717Z,93006.09
2023-11-30T23:16:09.492Z,93004.72
2023-11-30T23:18:37.249Z,93012.09
2023-11-30T23:21:05.238Z,93029.19
2023-11-30T23:23:33.242Z,93014.06
2023-11-30T23:26:01.391Z,93008.28
2023-11-30T23:28:29.078Z,93000.53
2023-11-30T23:30:57.767Z,93013.25
2023-11-30T23:33:25.480Z,93005.09
2023-11-30T23:35:53.249Z,93019.19
2023-11-30T23:38:21.225Z,93020.63
2023-11-30T23:40:49.641Z,93004.31
2023-11-30T23:43:19.271Z,92996.34
2023-11-30T23:45:47.349Z,92998.13
2023-11-30T23:48:15.170Z,92997.53
2023-11-30T23:50:42.861Z,93001.12
2023-11-30T23:53:10.924Z,93004.72
2023-11-30T23:55:38.641Z,92997.75
2023-11-30T23:58:06.312Z,92993.19
